Time;durP1;ratioP1;P1;durP2;ratioP2;P2;SDS_P1;SDS_P2;PMS_P1;PMS_P2;Temp;Humidity;BMP_temperature;BMP_pressure;BME280_temperature;BME280_humidity;BME280_pressure;Samples;Min_cycle;Max_cycle;Signal;HPM_P1;HPM_P2
2023/12/16 00:04:50;;;;;;;6.53;2.58;;;;;;;5.74;100.00;100569.69;15291141;19;20018;-64
2023/12/16 00:10:18;;;;;;;6.68;2.63;;;;;;;5.76;100.00;100576.69;15292864;19;20026;-64
2023/12/16 00:15:44;;;;;;;8.00;2.80;;;;;;;5.70;100.00;100585.03;15292696;19;20090;-64
2023/12/16 00:21:08;;;;;;;5.13;2.60;;;;;;;5.74;100.00;100591.94;15292802;19;20009;-64
2023/12/16 00:26:35;;;;;;;6.65;2.50;;;;;;;5.77;100.00;100591.78;15286707;19;20077;-64
2023/12/16 00:32:01;;;;;;;6.75;2.80;;;;;;;5.84;100.00;100605.72;15293690;19;20022;-65
2023/12/16 00:37:27;;;;;;;6.97;2.63;;;;;;;5.87;100.00;100626.97;15291295;19;20019;-62
2023/12/16 00:42:54;;;;;;;6.40;2.22;;;;;;;5.83;100.00;100623.56;15290478;19;20518;-61
2023/12/16 00:48:19;;;;;;;6.18;2.40;;;;;;;5.76;100.00;100616.81;15290266;19;20020;-61
2023/12/16 00:53:43;;;;;;;6.57;2.40;;;;;;;5.70;100.00;100617.13;15289271;19;20023;-64
2023/12/16 00:59:10;;;;;;;6.40;2.53;;;;;;;5.60;100.00;100623.84;15287117;19;20017;-63
2023/12/16 01:04:35;;;;;;;8.82;2.67;;;;;;;5.53;100.00;100621.47;15284113;19;20024;-63
2023/12/16 01:10:00;;;;;;;4.43;2.00;;;;;;;5.60;100.00;100632.75;15290466;19;20487;-63
2023/12/16 01:15:27;;;;;;;5.47;2.38;;;;;;;5.63;100.00;100631.72;15285883;19;20018;-64
2023/12/16 01:20:53;;;;;;;4.72;2.50;;;;;;;5.60;100.00;100629.19;15289351;19;20011;-62
2023/12/16 01:26:19;;;;;;;5.93;2.38;;;;;;;5.59;100.00;100631.00;15285410;19;20654;-64
2023/12/16 01:31:47;;;;;;;5.65;2.30;;;;;;;5.51;100.00;100622.50;15279845;19;20010;-64
2023/12/16 01:37:12;;;;;;;6.78;1.90;;;;;;;5.46;100.00;100617.38;15289316;19;20018;-64
2023/12/16 01:42:37;;;;;;;6.70;2.45;;;;;;;5.44;100.00;100602.31;15288659;19;20299;-63
2023/12/16 01:48:05;;;;;;;4.45;1.85;;;;;;;5.38;100.00;100595.47;15001271;19;5000828;-63
2023/12/16 01:53:32;;;;;;;5.20;2.30;;;;;;;5.34;100.00;100583.22;15286275;19;20474;-62
2023/12/16 01:58:58;;;;;;;5.80;2.28;;;;;;;5.32;100.00;100582.41;15291279;19;20070;-63
2023/12/16 02:04:27;;;;;;;5.72;2.20;;;;;;;5.34;100.00;100581.41;15294655;19;20551;-63
2023/12/16 02:09:51;;;;;;;5.35;2.40;;;;;;;5.33;100.00;100581.47;15302812;19;20442;-63
2023/12/16 02:15:16;;;;;;;4.65;1.95;;;;;;;5.32;100.00;100574.41;15295800;19;20019;-63
2023/12/16 02:20:43;;;;;;;6.40;2.30;;;;;;;5.30;100.00;100584.28;15299035;19;20424;-64
2023/12/16 02:26:10;;;;;;;6.80;2.58;;;;;;;5.28;100.00;100580.81;15295066;19;20086;-63
2023/12/16 02:31:35;;;;;;;7.82;2.85;;;;;;;5.30;100.00;100600.34;15301517;19;20013;-63
2023/12/16 02:37:05;;;;;;;5.13;2.30;;;;;;;5.34;100.00;100605.47;15295439;19;20042;-62
2023/12/16 02:42:32;;;;;;;5.53;2.20;;;;;;;5.34;100.00;100596.59;15297925;19;20037;-63
2023/12/16 02:47:57;;;;;;;7.10;2.55;;;;;;;5.29;100.00;100554.03;15296027;19;20020;-64
2023/12/16 02:53:21;;;;;;;6.97;2.50;;;;;;;5.28;100.00;100570.13;15295118;19;20032;-62
2023/12/16 02:58:49;;;;;;;5.47;2.40;;;;;;;5.30;100.00;100587.81;15300257;19;20021;-62
2023/12/16 03:04:13;;;;;;;6.72;2.40;;;;;;;5.40;100.00;100593.59;15270068;19;20021;-63
2023/12/16 03:09:38;;;;;;;6.65;2.80;;;;;;;5.44;100.00;100594.31;15292670;19;20014;-63
2023/12/16 03:15:07;;;;;;;6.38;2.50;;;;;;;5.40;100.00;100591.81;15295030;19;20029;-63
2023/12/16 03:20:33;;;;;;;6.07;2.40;;;;;;;5.39;100.00;100621.28;15298086;19;20021;-64
2023/12/16 03:25:57;;;;;;;7.25;2.40;;;;;;;5.37;100.00;100621.34;15291458;19;20018;-64
2023/12/16 03:31:24;;;;;;;6.95;2.50;;;;;;;5.41;100.00;100627.41;15296752;19;20506;-65
2023/12/16 03:36:49;;;;;;;5.13;2.40;;;;;;;5.46;100.00;100614.69;15298050;19;20027;-64
2023/12/16 03:42:07;;;;;;;5.05;2.50;;;;;;;5.53;100.00;100626.81;15292265;19;20017;-64
2023/12/16 03:47:41;;;;;;;6.82;2.55;;;;;;;5.55;100.00;100624.94;15291439;19;20017;-65
2023/12/16 03:53:06;;;;;;;6.38;2.47;;;;;;;5.61;100.00;100622.91;15293598;19;20018;-63
2023/12/16 03:58:30;;;;;;;5.68;2.15;;;;;;;5.66;100.00;100616.38;15296117;19;20018;-63
2023/12/16 04:03:57;;;;;;;8.05;2.40;;;;;;;5.65;100.00;100621.81;15291553;19;20502;-62
2023/12/16 04:09:22;;;;;;;5.57;2.47;;;;;;;5.60;100.00;100618.47;15295773;19;20351;-62
2023/12/16 04:14:47;;;;;;;8.25;2.83;;;;;;;5.54;100.00;100600.94;15284830;19;20025;-63
2023/12/16 04:20:15;;;;;;;6.35;2.70;;;;;;;5.49;100.00;100606.50;15293123;19;20025;-65
2023/12/16 04:25:40;;;;;;;8.20;2.63;;;;;;;5.53;100.00;100596.53;15290778;19;20463;-63
2023/12/16 04:31:05;;;;;;;6.05;2.40;;;;;;;5.59;100.00;100622.09;15292742;19;20014;-65
2023/12/16 04:36:33;;;;;;;6.68;2.50;;;;;;;5.55;100.00;100598.22;15292814;19;20081;-67
2023/12/16 04:41:57;;;;;;;6.65;2.50;;;;;;;5.50;100.00;100596.69;15292066;19;20014;-67
2023/12/16 04:47:28;;;;;;;5.95;2.50;;;;;;;5.47;100.00;100610.22;15283152;19;20021;-67
2023/12/16 04:52:56;;;;;;;9.07;2.80;;;;;;;5.41;100.00;100622.06;15286785;19;20058;-66
2023/12/16 04:58:21;;;;;;;5.40;2.70;;;;;;;5.37;100.00;100617.78;15282790;19;20014;-67
2023/12/16 05:03:47;;;;;;;7.63;3.05;;;;;;;5.35;100.00;100633.91;15282904;19;20010;-65
2023/12/16 05:09:14;;;;;;;7.28;2.90;;;;;;;5.33;100.00;100638.47;15286287;19;20078;-65
2023/12/16 05:14:41;;;;;;;9.10;3.00;;;;;;;5.33;100.00;100661.69;15284746;19;20053;-66
2023/12/16 05:20:05;;;;;;;6.13;2.88;;;;;;;5.33;100.00;100656.31;15290226;19;20021;-66
2023/12/16 05:25:33;;;;;;;9.02;3.00;;;;;;;5.35;100.00;100654.47;15284533;19;20035;-65
2023/12/16 05:30:57;;;;;;;8.07;3.30;;;;;;;5.34;100.00;100650.03;15284056;19;20025;-66
2023/12/16 05:36:22;;;;;;;7.68;3.20;;;;;;;5.33;100.00;100667.03;15284863;19;20021;-65
2023/12/16 05:41:49;;;;;;;8.43;3.08;;;;;;;5.36;100.00;100674.88;15284683;19;20778;-65
2023/12/16 05:47:20;;;;;;;8.13;3.70;;;;;;;5.35;100.00;100665.16;15269778;19;20457;-65
2023/12/16 05:52:45;;;;;;;7.47;3.40;;;;;;;5.33;100.00;100673.22;15284494;19;20025;-65
2023/12/16 05:58:12;;;;;;;7.18;3.35;;;;;;;5.31;100.00;100668.91;15287291;19;20363;-63
2023/12/16 06:03:39;;;;;;;8.60;3.65;;;;;;;5.31;100.00;100660.88;15280440;19;20019;-65
2023/12/16 06:09:04;;;;;;;8.60;3.65;;;;;;;5.31;100.00;100675.09;15283899;19;20369;-64
2023/12/16 06:14:32;;;;;;;6.10;3.42;;;;;;;5.29;100.00;100668.97;15283722;19;20021;-65
2023/12/16 06:19:56;;;;;;;7.25;3.30;;;;;;;5.25;100.00;100676.25;15286999;19;20894;-64
2023/12/16 06:25:21;;;;;;;6.53;3.10;;;;;;;5.23;100.00;100685.28;15280378;19;20018;-64
2023/12/16 06:30:48;;;;;;;6.82;3.35;;;;;;;5.20;100.00;100680.97;15286871;19;20014;-62
2023/12/16 06:36:13;;;;;;;6.78;3.17;;;;;;;5.20;100.00;100688.09;15278316;19;20021;-65
2023/12/16 06:41:37;;;;;;;6.50;2.95;;;;;;;5.16;100.00;100690.03;15285701;19;20017;-64
2023/12/16 06:47:11;;;;;;;6.80;3.40;;;;;;;5.16;100.00;100691.84;15288751;19;20039;-65
2023/12/16 06:52:36;;;;;;;7.55;3.13;;;;;;;5.12;100.00;100691.13;15298547;19;20463;-65
2023/12/16 06:58:00;;;;;;;8.98;3.30;;;;;;;5.11;100.00;100709.91;15298779;19;20021;-65
2023/12/16 07:03:28;;;;;;;8.85;3.00;;;;;;;5.07;100.00;100709.19;15295127;19;20408;-66
2023/12/16 07:08:52;;;;;;;7.13;3.35;;;;;;;5.07;100.00;100715.38;15290631;19;20015;-65
2023/12/16 07:14:19;;;;;;;8.00;3.40;;;;;;;5.08;100.00;100710.91;15294461;19;20363;-66
2023/12/16 07:19:46;;;;;;;7.45;3.17;;;;;;;5.09;100.00;100723.34;15297765;19;20020;-63
2023/12/16 07:25:11;;;;;;;6.60;2.55;;;;;;;5.12;100.00;100716.97;15290689;19;20025;-65
2023/12/16 07:30:35;;;;;;;8.38;3.20;;;;;;;5.09;100.00;100715.31;15296197;19;20015;-64
2023/12/16 07:36:02;;;;;;;6.85;2.60;;;;;;;5.13;100.00;100724.91;15290357;19;20010;-65
2023/12/16 07:41:27;;;;;;;6.75;3.00;;;;;;;5.16;100.00;100714.09;15284758;19;20337;-61
2023/12/16 07:46:52;;;;;;;7.05;2.80;;;;;;;5.38;100.00;100734.50;15260265;19;20014;-59
2023/12/16 07:52:19;;;;;;;4.80;2.50;;;;;;;5.41;100.00;100729.00;15286236;19;21155;-61
2023/12/16 07:57:44;;;;;;;5.50;2.40;;;;;;;5.39;100.00;100746.91;15283189;19;20018;-59
2023/12/16 08:03:08;;;;;;;3.95;2.10;;;;;;;5.36;100.00;100742.59;15283390;19;20014;-61
2023/12/16 08:08:36;;;;;;;9.68;2.60;;;;;;;5.44;100.00;100746.69;15282738;19;20017;-58
2023/12/16 08:14:00;;;;;;;7.60;2.33;;;;;;;5.48;100.00;100742.97;15277493;19;20018;-60
2023/12/16 08:19:26;;;;;;;7.18;2.25;;;;;;;5.58;100.00;100727.38;15285346;19;20017;-60
2023/12/16 08:24:53;;;;;;;6.93;2.25;;;;;;;5.63;100.00;100711.94;15280770;19;20030;-58
2023/12/16 08:30:18;;;;;;;7.00;2.15;;;;;;;5.64;100.00;100713.69;15276925;19;20021;-60
2023/12/16 08:35:43;;;;;;;7.43;2.05;;;;;;;5.68;100.00;100709.94;15278228;19;20018;-61
2023/12/16 08:41:12;;;;;;;4.85;1.80;;;;;;;5.71;100.00;100705.31;15281939;19;20021;-59
2023/12/16 08:46:48;;;;;;;6.03;2.10;;;;;;;5.75;100.00;100686.44;15274110;19;20010;-56
2023/12/16 08:52:13;;;;;;;6.35;1.95;;;;;;;5.78;100.00;100695.19;15281957;19;20018;-57
2023/12/16 08:57:41;;;;;;;5.72;1.92;;;;;;;5.84;100.00;100688.66;15281057;19;20022;-60
2023/12/16 09:03:14;;;;;;;7.70;2.50;;;;;;;5.90;100.00;100706.22;15277145;19;20014;-58
2023/12/16 09:08:39;;;;;;;6.88;2.20;;;;;;;5.92;100.00;100718.56;15280732;19;20021;-59
2023/12/16 09:14:06;;;;;;;8.77;2.33;;;;;;;5.93;100.00;100722.13;15277184;19;20026;-61
2023/12/16 09:19:31;;;;;;;5.97;2.25;;;;;;;5.98;100.00;100718.28;15276384;19;20031;-60
2023/12/16 09:24:56;;;;;;;6.50;2.00;;;;;;;6.05;100.00;100724.25;15272630;19;20086;-60
2023/12/16 09:30:24;;;;;;;6.72;2.00;;;;;;;6.14;100.00;100717.53;15272749;19;20032;-61
2023/12/16 09:35:48;;;;;;;5.82;2.03;;;;;;;6.19;100.00;100696.78;15273464;19;20038;-61
2023/12/16 09:41:23;;;;;;;6.60;1.95;;;;;;;6.23;100.00;100682.31;15277820;19;20674;-61
2023/12/16 09:46:59;;;;;;;7.22;2.17;;;;;;;6.26;100.00;100666.06;15277041;19;20342;-60
2023/12/16 09:52:24;;;;;;;10.88;2.97;;;;;;;6.30;100.00;100680.16;15274803;19;20035;-60
2023/12/16 09:57:49;;;;;;;6.70;2.15;;;;;;;6.33;100.00;100669.31;15276358;19;20019;-60
2023/12/16 10:03:18;;;;;;;6.40;2.25;;;;;;;6.35;100.00;100664.75;15275633;19;20025;-60
2023/12/16 10:08:43;;;;;;;6.32;2.10;;;;;;;6.37;100.00;100668.22;15274030;19;20086;-56
2023/12/16 10:14:08;;;;;;;4.95;1.95;;;;;;;6.41;100.00;100658.19;15273293;19;20492;-60
2023/12/16 10:19:35;;;;;;;6.40;2.30;;;;;;;6.43;100.00;100675.06;15024004;19;5001138;-60
2023/12/16 10:25:07;;;;;;;7.35;2.42;;;;;;;6.47;100.00;100668.56;15283444;19;20018;-62
2023/12/16 10:30:34;;;;;;;7.47;2.10;;;;;;;6.47;100.00;100672.16;15287116;19;20027;-58
2023/12/16 10:36:03;;;;;;;6.38;2.10;;;;;;;6.50;100.00;100672.94;15285778;19;20082;-62
2023/12/16 10:41:28;;;;;;;7.07;2.00;;;;;;;6.52;100.00;100655.84;15289797;19;20019;-61
2023/12/16 10:47:01;;;;;;;6.85;2.08;;;;;;;6.53;100.00;100633.47;15287414;19;20035;-60
2023/12/16 10:52:34;;;;;;;7.25;2.00;;;;;;;6.52;100.00;100623.69;15288467;19;20021;-59
2023/12/16 10:58:07;;;;;;;6.35;1.90;;;;;;;6.47;100.00;100625.72;15281133;19;20089;-62
2023/12/16 11:03:38;;;;;;;5.63;1.88;;;;;;;6.44;100.00;100602.66;15028606;19;5001463;-60
2023/12/16 11:09:09;;;;;;;7.25;2.00;;;;;;;6.40;100.00;100584.16;15283642;19;20526;-60
2023/12/16 11:14:37;;;;;;;5.28;1.85;;;;;;;6.39;100.00;100586.00;15283912;19;20019;-61
2023/12/16 11:20:08;;;;;;;5.25;1.80;;;;;;;6.47;100.00;100575.72;15288569;19;20074;-61
2023/12/16 11:25:38;;;;;;;8.43;2.08;;;;;;;6.62;100.00;100576.72;15276148;19;20027;-61
2023/12/16 11:31:05;;;;;;;7.32;1.98;;;;;;;6.71;100.00;100588.75;15281679;19;20015;-62
2023/12/16 11:36:53;;;;;;;10.23;1.90;;;;;;;6.76;100.00;100564.38;15285057;19;20017;-62
2023/12/16 11:42:20;;;;;;;8.13;1.85;;;;;;;6.73;100.00;100559.19;15286456;19;20017;-61
2023/12/16 11:47:51;;;;;;;5.60;1.73;;;;;;;6.72;100.00;100547.63;15292077;19;20078;-59
2023/12/16 11:53:19;;;;;;;6.57;1.85;;;;;;;6.71;100.00;100545.88;15292928;19;20017;-59
2023/12/16 11:58:48;;;;;;;7.35;2.20;;;;;;;6.70;100.00;100521.88;15288986;19;20018;-58
2023/12/16 12:04:13;;;;;;;5.18;1.80;;;;;;;6.66;100.00;100513.13;15283483;19;20317;-58
2023/12/16 12:09:38;;;;;;;6.57;1.73;;;;;;;6.65;100.00;100522.09;15283253;19;20375;-59
2023/12/16 12:15:06;;;;;;;6.93;1.60;;;;;;;6.68;100.00;100518.41;15280542;19;20477;-58
2023/12/16 12:20:32;;;;;;;8.38;2.42;;;;;;;6.71;100.00;100488.75;15285480;19;20038;-59
2023/12/16 12:26:03;;;;;;;6.53;1.92;;;;;;;6.77;100.00;100489.28;15282608;19;20012;-57
2023/12/16 12:31:31;;;;;;;6.27;1.80;;;;;;;6.90;100.00;100470.72;15284817;19;20014;-58
2023/12/16 12:36:56;;;;;;;4.50;1.60;;;;;;;6.97;100.00;100463.19;15291019;19;20291;-59
2023/12/16 12:42:21;;;;;;;5.25;1.73;;;;;;;7.03;100.00;100441.38;15288777;19;20078;-60
2023/12/16 12:47:49;;;;;;;5.97;1.83;;;;;;;7.12;100.00;100442.66;15289880;19;20086;-59
2023/12/16 12:53:18;;;;;;;9.77;1.95;;;;;;;7.21;100.00;100425.19;15289638;19;20436;-61
2023/12/16 12:58:43;;;;;;;4.93;1.85;;;;;;;7.26;100.00;100420.41;15291688;19;20350;-59
2023/12/16 13:04:12;;;;;;;7.57;1.90;;;;;;;7.31;100.00;100402.25;15283014;19;20014;-60
2023/12/16 13:09:36;;;;;;;7.38;1.92;;;;;;;7.27;100.00;100407.88;15289988;19;20098;-60
2023/12/16 13:15:01;;;;;;;6.78;1.80;;;;;;;7.19;100.00;100397.59;15287056;19;20015;-59
2023/12/16 13:20:29;;;;;;;6.05;2.00;;;;;;;7.12;100.00;100401.59;15288694;19;20015;-62
2023/12/16 13:25:54;;;;;;;5.88;1.70;;;;;;;7.01;100.00;100386.16;15282981;19;20522;-61
2023/12/16 13:31:19;;;;;;;8.00;1.98;;;;;;;6.93;100.00;100381.22;15284460;19;20018;-59
2023/12/16 13:36:47;;;;;;;5.90;1.73;;;;;;;6.87;100.00;100371.72;15281128;19;20039;-58
2023/12/16 13:42:21;;;;;;;6.90;1.80;;;;;;;6.77;100.00;100368.72;15288595;19;20527;-58
2023/12/16 13:47:46;;;;;;;5.53;1.70;;;;;;;6.68;100.00;100369.25;15287085;19;20082;-60
2023/12/16 13:53:13;;;;;;;4.97;1.80;;;;;;;6.66;100.00;100359.59;15284439;19;20089;-60
2023/12/16 13:58:38;;;;;;;5.90;1.70;;;;;;;6.64;100.00;100365.03;15286824;19;20368;-56
2023/12/16 14:04:03;;;;;;;4.63;1.55;;;;;;;6.60;100.00;100369.69;15283136;19;20031;-60
2023/12/16 14:09:31;;;;;;;5.65;1.85;;;;;;;6.56;100.00;100370.84;15280020;19;20344;-58
2023/12/16 14:14:55;;;;;;;8.00;1.85;;;;;;;6.49;100.00;100369.44;15283718;19;20027;-59
2023/12/16 14:20:22;;;;;;;8.10;1.90;;;;;;;6.45;100.00;100376.78;15286104;19;20025;-59
2023/12/16 14:25:50;;;;;;;6.05;1.83;;;;;;;6.38;100.00;100383.44;15279628;19;20018;-57
2023/12/16 14:31:15;;;;;;;5.13;1.70;;;;;;;6.30;100.00;100385.66;15281928;19;20018;-58
2023/12/16 14:36:39;;;;;;;5.80;1.60;;;;;;;6.28;100.00;100382.25;15284013;19;20031;-58
2023/12/16 14:42:10;;;;;;;5.43;1.60;;;;;;;6.32;100.00;100390.00;15277878;19;20022;-54
2023/12/16 14:47:41;;;;;;;8.47;2.00;;;;;;;6.24;100.00;100383.34;15281687;19;20078;-58
2023/12/16 14:53:07;;;;;;;6.80;1.83;;;;;;;6.09;100.00;100383.22;15282819;19;20832;-58
2023/12/16 14:58:35;;;;;;;7.57;2.22;;;;;;;5.92;100.00;100384.13;15283452;19;20272;-61
2023/12/16 15:04:00;;;;;;;8.50;2.30;;;;;;;5.70;100.00;100379.09;15278903;19;20006;-56
2023/12/16 15:09:25;;;;;;;6.88;2.25;;;;;;;5.53;100.00;100386.16;15295506;19;20101;-60
2023/12/16 15:14:53;;;;;;;5.25;2.15;;;;;;;5.40;100.00;100393.09;15286677;19;20011;-61
2023/12/16 15:20:18;;;;;;;6.68;2.30;;;;;;;5.32;100.00;100395.31;15297138;19;20021;-59
2023/12/16 15:25:44;;;;;;;9.73;3.22;;;;;;;5.23;100.00;100396.63;15290893;19;20029;-57
2023/12/16 15:31:11;;;;;;;12.40;3.33;;;;;;;5.17;100.00;100404.97;15294541;19;20489;-57
2023/12/16 15:36:36;;;;;;;6.82;2.80;;;;;;;5.12;100.00;100394.50;15296123;19;20017;-57
2023/12/16 15:42:00;;;;;;;6.97;2.70;;;;;;;5.08;100.00;100392.94;15296624;19;20032;-57
2023/12/16 15:47:34;;;;;;;6.70;2.60;;;;;;;5.07;100.00;100407.25;15290752;19;20021;-57
2023/12/16 15:53:00;;;;;;;10.70;2.63;;;;;;;5.01;100.00;100394.19;15294033;19;20081;-60
2023/12/16 15:58:24;;;;;;;8.15;3.00;;;;;;;4.91;100.00;100391.13;15294787;19;20364;-59
2023/12/16 16:03:52;;;;;;;7.72;2.70;;;;;;;4.77;100.00;100403.34;15288275;19;20459;-60
2023/12/16 16:09:17;;;;;;;10.68;2.40;;;;;;;4.60;100.00;100401.50;15294724;19;20018;-58
2023/12/16 16:14:42;;;;;;;6.20;2.25;;;;;;;4.48;100.00;100408.28;15290065;19;20013;-56
2023/12/16 16:20:10;;;;;;;5.68;2.13;;;;;;;4.50;100.00;100404.69;15287231;19;20021;-54
2023/12/16 16:25:36;;;;;;;7.47;2.47;;;;;;;4.50;100.00;100421.56;15287511;19;20020;-59
2023/12/16 16:30:59;;;;;;;9.27;2.60;;;;;;;4.49;100.00;100414.50;15291793;19;20017;-55
2023/12/16 16:36:27;;;;;;;6.85;2.35;;;;;;;4.53;100.00;100410.72;15291711;19;20014;-55
2023/12/16 16:41:51;;;;;;;6.85;2.47;;;;;;;4.53;100.00;100415.22;15281751;19;20020;-58
2023/12/16 16:47:22;;;;;;;12.15;2.47;;;;;;;4.60;100.00;100405.97;15284782;19;20039;-58
2023/12/16 16:52:50;;;;;;;5.77;2.73;;;;;;;4.65;100.00;100411.06;15281556;19;20025;-59
2023/12/16 16:58:14;;;;;;;7.10;2.78;;;;;;;4.67;100.00;100411.88;15289610;19;20258;-57
2023/12/16 17:03:39;;;;;;;8.27;2.90;;;;;;;4.70;100.00;100425.06;15286529;19;20018;-58
2023/12/16 17:09:06;;;;;;;8.77;3.00;;;;;;;4.81;100.00;100436.09;15283207;19;20029;-56
2023/12/16 17:14:31;;;;;;;7.88;2.50;;;;;;;4.87;100.00;100435.81;15280354;19;20030;-57
2023/12/16 17:19:55;;;;;;;6.60;2.40;;;;;;;4.94;100.00;100431.91;15283334;19;20017;-57
2023/12/16 17:25:23;;;;;;;7.45;2.47;;;;;;;4.97;100.00;100443.38;15284090;19;20384;-57
2023/12/16 17:30:47;;;;;;;8.10;2.72;;;;;;;5.02;100.00;100457.34;15286309;19;20085;-57
2023/12/16 17:36:12;;;;;;;9.25;3.05;;;;;;;5.04;100.00;100458.16;15274268;19;20025;-58
2023/12/16 17:41:40;;;;;;;11.30;3.38;;;;;;;5.05;100.00;100467.91;15275314;19;20021;-59
2023/12/16 17:47:12;;;;;;;7.70;3.15;;;;;;;5.04;100.00;100461.72;15277901;19;20407;-58
2023/12/16 17:52:36;;;;;;;6.90;3.00;;;;;;;5.05;100.00;100466.13;15277636;19;20022;-58
2023/12/16 17:58:04;;;;;;;7.30;2.33;;;;;;;5.08;100.00;100481.13;15284434;19;20463;-57
2023/12/16 18:03:28;;;;;;;5.68;2.30;;;;;;;5.11;100.00;100488.09;15281444;19;20016;-58
2023/12/16 18:08:52;;;;;;;6.20;2.10;;;;;;;5.11;100.00;100474.75;15283736;19;20016;-57
2023/12/16 18:14:20;;;;;;;8.77;3.00;;;;;;;5.11;100.00;100475.63;15281174;19;20024;-59
2023/12/16 18:19:45;;;;;;;10.68;3.90;;;;;;;5.09;100.00;100469.50;15281915;19;20023;-58
2023/12/16 18:25:10;;;;;;;7.15;2.50;;;;;;;5.04;100.00;100459.03;15275422;19;20074;-60
2023/12/16 18:30:38;;;;;;;7.93;2.72;;;;;;;5.03;100.00;100456.41;15280990;19;20272;-55
2023/12/16 18:36:02;;;;;;;11.85;2.80;;;;;;;5.03;100.00;100461.75;15279671;19;20014;-60
2023/12/16 18:41:27;;;;;;;8.43;2.47;;;;;;;5.02;100.00;100460.91;15289832;19;20022;-59
2023/12/16 18:47:01;;;;;;;9.00;2.80;;;;;;;5.02;100.00;100455.56;15293194;19;20025;-59
2023/12/16 18:52:25;;;;;;;7.20;2.60;;;;;;;5.02;100.00;100463.59;15296210;19;20018;-60
2023/12/16 18:57:50;;;;;;;6.88;2.88;;;;;;;5.01;100.00;100463.63;15291963;19;20022;-58
2023/12/16 19:03:18;;;;;;;7.20;2.40;;;;;;;5.03;100.00;100451.97;15297249;19;20018;-59
2023/12/16 19:08:42;;;;;;;8.40;2.42;;;;;;;5.13;100.00;100451.50;15296065;19;20470;-57
2023/12/16 19:14:08;;;;;;;7.85;2.60;;;;;;;5.17;100.00;100435.22;15294489;19;20018;-59
2023/12/16 19:19:36;;;;;;;6.97;2.63;;;;;;;5.23;100.00;100415.34;15297811;19;20014;-59
2023/12/16 19:25:00;;;;;;;5.80;2.30;;;;;;;5.24;100.00;100425.94;15290465;19;20049;-59
2023/12/16 19:30:26;;;;;;;7.32;2.42;;;;;;;5.29;100.00;100446.25;15291628;19;20025;-60
2023/12/16 19:35:54;;;;;;;6.60;2.20;;;;;;;5.32;100.00;100456.78;15289374;19;20534;-57
2023/12/16 19:41:19;;;;;;;5.53;2.30;;;;;;;5.32;100.00;100462.13;15296934;19;20018;-59
2023/12/16 19:46:50;;;;;;;6.45;2.58;;;;;;;5.31;100.00;100471.09;15289647;19;20034;-60
2023/12/16 19:52:18;;;;;;;7.32;2.28;;;;;;;5.33;100.00;100469.22;15292082;19;20021;-59
2023/12/16 19:57:43;;;;;;;5.90;2.30;;;;;;;5.36;100.00;100469.03;15271444;19;20021;-57
2023/12/16 20:03:07;;;;;;;6.78;2.40;;;;;;;5.37;100.00;100460.06;15287674;19;20788;-57
2023/12/16 20:08:35;;;;;;;9.60;3.85;;;;;;;5.37;100.00;100465.41;15292494;19;20002;-58
2023/12/16 20:13:59;;;;;;;6.63;2.70;;;;;;;5.38;100.00;100461.81;15290327;19;20081;-60
2023/12/16 20:19:24;;;;;;;6.72;2.40;;;;;;;5.39;100.00;100468.88;15294163;19;20029;-54
2023/12/16 20:24:51;;;;;;;6.35;2.25;;;;;;;5.42;100.00;100467.84;15288793;19;20364;-55
2023/12/16 20:30:17;;;;;;;6.72;2.30;;;;;;;5.42;100.00;100463.41;15291479;19;20021;-55
2023/12/16 20:35:41;;;;;;;6.93;2.10;;;;;;;5.47;100.00;100463.16;15280760;19;20021;-55
2023/12/16 20:41:09;;;;;;;4.07;1.90;;;;;;;5.48;100.00;100463.06;15292982;19;20086;-56
2023/12/16 20:46:40;;;;;;;5.68;2.28;;;;;;;5.50;100.00;100455.00;15288245;19;20018;-58
2023/12/16 20:52:04;;;;;;;7.00;2.30;;;;;;;5.51;100.00;100457.56;15281520;19;20042;-61
2023/12/16 20:57:33;;;;;;;7.68;2.65;;;;;;;5.56;100.00;100457.34;15289893;19;20587;-62
2023/12/16 21:02:58;;;;;;;4.97;2.30;;;;;;;5.58;100.00;100457.28;15286009;19;20426;-62
2023/12/16 21:08:23;;;;;;;5.60;2.20;;;;;;;5.59;100.00;100465.22;15284733;19;20845;-60
2023/12/16 21:13:50;;;;;;;5.10;2.10;;;;;;;5.57;100.00;100466.25;15284375;19;20108;-60
2023/12/16 21:19:15;;;;;;;5.40;2.13;;;;;;;5.52;100.00;100470.00;15290345;19;20395;-60
2023/12/16 21:24:41;;;;;;;7.03;2.38;;;;;;;5.50;100.00;100466.53;15281218;19;20478;-60
2023/12/16 21:30:18;;;;;;;5.65;2.20;;;;;;;5.46;100.00;100443.59;15290722;19;20021;-59
2023/12/16 21:35:42;;;;;;;5.20;2.00;;;;;;;5.46;100.00;100461.44;15279170;19;20015;-57
2023/12/16 21:41:07;;;;;;;8.63;2.30;;;;;;;5.47;100.00;100471.19;15283916;19;20022;-55
2023/12/16 21:46:42;;;;;;;7.65;2.30;;;;;;;5.49;100.00;100464.81;15282372;19;20011;-57
2023/12/16 21:52:07;;;;;;;6.97;2.47;;;;;;;5.50;100.00;100461.19;15285679;19;20022;-57
2023/12/16 21:57:32;;;;;;;6.10;2.30;;;;;;;5.49;100.00;100459.44;15286798;19;20025;-56
2023/12/16 22:02:59;;;;;;;5.57;2.00;;;;;;;5.49;100.00;100463.94;15285286;19;20018;-54
2023/12/16 22:08:24;;;;;;;5.25;2.10;;;;;;;5.47;100.00;100469.34;15283414;19;20415;-55
2023/12/16 22:13:55;;;;;;;5.15;2.33;;;;;;;5.49;100.00;100477.31;15278330;19;20106;-56
2023/12/16 22:19:23;;;;;;;4.32;1.92;;;;;;;5.52;100.00;100469.16;15301547;19;20022;-56
2023/12/16 22:24:47;;;;;;;4.55;1.95;;;;;;;5.50;100.00;100471.03;15296893;19;20025;-56
2023/12/16 22:30:14;;;;;;;5.60;2.20;;;;;;;5.44;100.00;100466.88;15301771;19;20021;-55
2023/12/16 22:35:41;;;;;;;6.97;2.25;;;;;;;5.31;100.00;100474.63;15295108;19;20101;-55
2023/12/16 22:41:06;;;;;;;7.15;2.20;;;;;;;5.16;100.00;100468.25;15302575;19;20014;-57
2023/12/16 22:46:37;;;;;;;5.38;2.42;;;;;;;5.03;100.00;100493.81;15285417;19;20015;-55
2023/12/16 22:52:04;;;;;;;5.85;2.40;;;;;;;4.95;100.00;100504.88;15297928;19;20687;-55
2023/12/16 22:57:30;;;;;;;8.65;2.30;;;;;;;4.85;100.00;100511.59;15299171;19;20078;-54
2023/12/16 23:02:54;;;;;;;5.68;2.00;;;;;;;4.80;100.00;100517.16;15296643;19;20097;-57
2023/12/16 23:08:22;;;;;;;5.90;2.00;;;;;;;4.79;100.00;100507.41;15298495;19;20021;-56
2023/12/16 23:13:48;;;;;;;6.40;2.40;;;;;;;4.78;100.00;100497.66;15292785;19;20379;-56
2023/12/16 23:19:12;;;;;;;7.45;2.10;;;;;;;4.73;100.00;100481.00;15292910;19;20021;-57
2023/12/16 23:24:39;;;;;;;8.10;2.20;;;;;;;4.64;100.00;100468.97;15291947;19;20016;-56
2023/12/16 23:30:04;;;;;;;6.03;2.08;;;;;;;4.55;100.00;100462.25;15297816;19;20534;-57
2023/12/16 23:35:29;;;;;;;5.53;2.30;;;;;;;4.37;100.00;100479.13;15291515;19;20038;-55
2023/12/16 23:40:57;;;;;;;7.10;2.35;;;;;;;4.24;100.00;100484.16;15298802;19;20013;-56
2023/12/16 23:46:30;;;;;;;6.28;2.17;;;;;;;4.14;100.00;100489.06;15290944;19;20018;-56
2023/12/16 23:51:55;;;;;;;5.35;2.30;;;;;;;4.07;100.00;100501.81;15291148;19;20081;-54
2023/12/16 23:57:23;;;;;;;5.55;2.05;;;;;;;4.16;100.00;100511.19;15293373;19;20388;-56
